createdAt,value
2018-05-12T00:02:06.491Z,19.20
2018-05-12T00:04:34.398Z,19.10
2018-05-12T00:07:02.382Z,19.00
2018-05-12T00:09:31.175Z,19.20
2018-05-12T00:11:59.972Z,19.20
2018-05-12T00:14:28.671Z,19.20
2018-05-12T00:16:56.639Z,19.20
2018-05-12T00:19:24.618Z,19.10
2018-05-12T00:21:52.547Z,19.20
2018-05-12T00:24:20.463Z,19.30
2018-05-12T00:26:48.379Z,19.20
2018-05-12T00:29:16.374Z,19.10
2018-05-12T00:31:45.056Z,19.10
2018-05-12T00:34:13.727Z,19.00
2018-05-12T00:36:41.655Z,18.90
2018-05-12T00:39:09.537Z,19.00
2018-05-12T00:41:38.225Z,19.00
2018-05-12T00:44:06.208Z,19.00
2018-05-12T00:46:34.219Z,19.00
2018-05-12T00:49:02.932Z,19.00
2018-05-12T00:51:30.910Z,18.90
2018-05-12T00:53:58.921Z,19.00
2018-05-12T00:56:26.906Z,19.00
2018-05-12T00:58:55.599Z,18.80
2018-05-12T01:01:24.276Z,18.80
2018-05-12T01:03:52.995Z,18.80
2018-05-12T01:06:21.037Z,18.80
2018-05-12T01:08:49.762Z,18.90
2018-05-12T01:11:17.677Z,18.90
2018-05-12T01:13:45.658Z,18.80
2018-05-12T01:16:14.460Z,18.80
2018-05-12T01:18:42.430Z,18.80
2018-05-12T01:21:10.381Z,18.80
2018-05-12T01:23:39.096Z,18.50
2018-05-12T01:26:07.014Z,18.50
2018-05-12T01:28:34.992Z,18.60
2018-05-12T01:31:02.965Z,18.60
2018-05-12T01:33:30.883Z,18.60
2018-05-12T01:35:58.836Z,18.60
2018-05-12T01:38:26.779Z,18.50
2018-05-12T01:40:55.580Z,18.60
2018-05-12T01:43:24.297Z,18.30
2018-05-12T01:45:52.247Z,18.30
2018-05-12T01:48:20.143Z,18.10
2018-05-12T01:50:48.111Z,18.10
2018-05-12T01:53:16.007Z,18.20
2018-05-12T01:55:43.954Z,18.10
2018-05-12T01:58:11.919Z,18.10
2018-05-12T02:00:39.909Z,18.20
2018-05-12T02:03:07.819Z,18.30
2018-05-12T02:05:36.584Z,18.30
2018-05-12T02:08:04.562Z,18.20
2018-05-12T02:10:32.555Z,18.20
2018-05-12T02:13:00.503Z,18.20
2018-05-12T02:15:28.492Z,18.10
2018-05-12T02:17:57.158Z,18.00
2018-05-12T02:20:25.118Z,18.00
2018-05-12T02:22:53.054Z,18.00
2018-05-12T02:25:21.031Z,18.00
2018-05-12T02:27:48.975Z,18.00
2018-05-12T02:30:16.945Z,17.90
2018-05-12T02:32:44.924Z,17.80
2018-05-12T02:35:12.932Z,17.90
2018-05-12T02:37:40.917Z,17.90
2018-05-12T02:40:08.881Z,18.00
2018-05-12T02:42:37.689Z,17.90
2018-05-12T02:45:06.418Z,18.00
2018-05-12T02:47:34.343Z,18.00
2018-05-12T02:50:03.048Z,17.90
2018-05-12T02:52:30.970Z,17.80
2018-05-12T02:54:58.938Z,18.00
2018-05-12T02:57:26.875Z,18.00
2018-05-12T02:59:54.850Z,18.00
2018-05-12T03:02:22.815Z,17.80
2018-05-12T03:04:50.885Z,17.80
2018-05-12T03:07:18.894Z,17.80
2018-05-12T03:09:46.830Z,17.70
2018-05-12T03:12:14.831Z,17.80
2018-05-12T03:14:42.778Z,17.70
2018-05-12T03:17:10.723Z,17.60
2018-05-12T03:19:38.675Z,17.70
2018-05-12T03:22:07.335Z,17.60
2018-05-12T03:24:35.271Z,17.60
2018-05-12T03:27:03.219Z,17.50
2018-05-12T03:29:31.227Z,17.60
2018-05-12T03:31:59.222Z,17.60
2018-05-12T03:34:27.940Z,17.70
2018-05-12T03:36:55.934Z,17.70
2018-05-12T03:39:23.856Z,17.70
2018-05-12T03:41:52.584Z,17.70
2018-05-12T03:44:20.582Z,17.70
2018-05-12T03:46:48.508Z,17.70
2018-05-12T03:49:16.479Z,17.70
2018-05-12T03:51:44.380Z,17.60
2018-05-12T03:54:12.296Z,17.60
2018-05-12T03:56:40.988Z,17.70
2018-05-12T03:59:08.968Z,17.70
2018-05-12T04:01:36.948Z,17.70
2018-05-12T04:04:05.008Z,17.70
2018-05-12T04:06:44.753Z,17.70
2018-05-12T04:09:24.453Z,17.60
2018-05-12T04:12:04.146Z,17.70
2018-05-12T04:14:32.065Z,17.70
2018-05-12T04:17:00.006Z,17.80
2018-05-12T04:19:28.007Z,17.90
2018-05-12T04:21:55.931Z,17.80
2018-05-12T04:24:23.895Z,17.80
2018-05-12T04:26:51.796Z,17.80
2018-05-12T04:29:19.723Z,17.80
2018-05-12T04:31:47.656Z,17.80
2018-05-12T04:34:16.381Z,17.80
2018-05-12T04:36:44.374Z,17.80
2018-05-12T04:39:12.381Z,17.90
2018-05-12T04:41:40.438Z,18.00
2018-05-12T04:44:08.376Z,18.00
2018-05-12T04:46:36.487Z,18.00
2018-05-12T04:49:04.391Z,18.00
2018-05-12T04:51:33.085Z,18.10
2018-05-12T04:54:01.001Z,18.10
2018-05-12T04:56:28.987Z,18.30
2018-05-12T04:58:56.996Z,18.30
2018-05-12T05:01:24.933Z,18.30
2018-05-12T05:03:53.620Z,18.40
2018-05-12T05:06:21.673Z,18.40
2018-05-12T05:08:49.597Z,18.40
2018-05-12T05:11:17.621Z,18.50
2018-05-12T05:13:45.608Z,18.60
2018-05-12T05:16:14.346Z,18.70
2018-05-12T05:18:42.293Z,18.70
2018-05-12T05:21:10.358Z,18.70
2018-05-12T05:23:38.278Z,18.90
2018-05-12T05:26:06.221Z,18.90
2018-05-12T05:28:34.166Z,18.90
2018-05-12T05:31:02.139Z,19.00
2018-05-12T05:33:30.128Z,19.00
2018-05-12T05:35:58.123Z,19.10
2018-05-12T05:38:26.074Z,19.20
2018-05-12T05:40:53.991Z,19.20
2018-05-12T05:43:22.672Z,19.40
2018-05-12T05:45:51.446Z,19.40
2018-05-12T05:48:19.375Z,19.40
2018-05-12T05:50:47.294Z,19.50
2018-05-12T05:53:15.287Z,19.50
2018-05-12T05:55:43.204Z,19.60
2018-05-12T05:58:11.104Z,19.60
2018-05-12T06:00:39.143Z,19.60
2018-05-12T06:03:07.152Z,19.70
2018-05-12T06:05:35.846Z,19.90
2018-05-12T06:08:04.571Z,19.90
2018-05-12T06:10:32.502Z,19.90
2018-05-12T06:13:01.264Z,20.10
2018-05-12T06:15:29.180Z,20.00
2018-05-12T06:17:57.240Z,20.10
2018-05-12T06:20:25.178Z,20.20
2018-05-12T06:22:53.129Z,20.30
2018-05-12T06:25:21.066Z,20.50
2018-05-12T06:27:49.017Z,20.50
2018-05-12T06:30:16.932Z,20.60
2018-05-12T06:32:44.820Z,20.70
2018-05-12T06:35:12.826Z,20.70
2018-05-12T06:37:40.762Z,20.70
2018-05-12T06:40:08.765Z,20.70
2018-05-12T06:42:36.837Z,20.90
2018-05-12T06:45:04.831Z,20.90
2018-05-12T06:47:32.781Z,20.90
2018-05-12T06:50:00.721Z,21.00
2018-05-12T06:52:29.467Z,21.10
2018-05-12T06:54:57.653Z,21.10
2018-05-12T06:57:25.672Z,21.20
2018-05-12T06:59:54.398Z,21.50
2018-05-12T07:02:23.022Z,21.50
2018-05-12T07:04:50.939Z,21.60
2018-05-12T07:07:18.875Z,21.80
2018-05-12T07:09:47.551Z,21.90
2018-05-12T07:12:16.344Z,22.00
2018-05-12T07:14:45.155Z,22.00
2018-05-12T07:17:13.065Z,22.00
2018-05-12T07:19:41.062Z,22.10
2018-05-12T07:22:09.044Z,25.20
2018-05-12T07:24:37.784Z,22.30
2018-05-12T07:27:05.795Z,22.20
2018-05-12T07:29:34.550Z,22.40
2018-05-12T07:32:02.468Z,22.40
2018-05-12T07:34:31.219Z,22.40
2018-05-12T07:36:59.220Z,22.40
2018-05-12T07:39:27.885Z,22.50
2018-05-12T07:41:55.855Z,22.50
2018-05-12T07:44:23.821Z,22.50
2018-05-12T07:46:51.733Z,22.50
2018-05-12T07:49:19.686Z,22.40
2018-05-12T07:51:48.401Z,22.40
2018-05-12T07:54:16.372Z,22.40
2018-05-12T07:56:44.309Z,22.60
2018-05-12T07:59:13.073Z,22.80
2018-05-12T08:01:41.033Z,22.80
2018-05-12T08:04:08.971Z,22.80
2018-05-12T08:06:36.985Z,22.90
2018-05-12T08:09:05.041Z,22.80
2018-05-12T08:11:33.010Z,22.90
2018-05-12T08:15:12.465Z,22.70
2018-05-12T08:17:40.533Z,22.90
2018-05-12T08:20:08.479Z,23.10
2018-05-12T08:22:36.380Z,23.20
2018-05-12T08:25:04.457Z,23.00
2018-05-12T08:27:32.470Z,23.20
2018-05-12T08:30:00.390Z,23.30
2018-05-12T08:32:28.374Z,23.20
2018-05-12T08:34:57.052Z,23.40
2018-05-12T08:37:25.048Z,23.40
2018-05-12T08:39:53.827Z,23.40
2018-05-12T08:42:22.527Z,23.80
2018-05-12T08:44:50.430Z,23.70
2018-05-12T08:47:18.459Z,23.80
2018-05-12T08:49:47.124Z,23.60
2018-05-12T08:52:15.131Z,23.60
2018-05-12T08:54:43.095Z,23.70
2018-05-12T08:57:11.060Z,23.70
2018-05-12T08:59:39.050Z,23.70
2018-05-12T09:02:07.054Z,23.80
2018-05-12T09:04:34.952Z,23.80
2018-05-12T09:07:03.609Z,23.90
2018-05-12T09:09:31.612Z,23.90
2018-05-12T09:12:00.334Z,24.20
2018-05-12T09:14:28.330Z,24.20
2018-05-12T09:16:56.346Z,24.30
2018-05-12T09:19:25.123Z,24.20
2018-05-12T09:21:53.071Z,24.10
2018-05-12T09:24:21.011Z,24.10
2018-05-12T09:26:48.940Z,24.30
2018-05-12T09:29:17.661Z,24.20
2018-05-12T09:31:45.650Z,24.20
2018-05-12T09:34:13.567Z,24.40
2018-05-12T09:36:42.282Z,23.80
2018-05-12T09:39:10.233Z,23.80
2018-05-12T09:41:38.208Z,23.80
2018-05-12T09:44:06.223Z,24.00
2018-05-12T09:46:34.184Z,24.40
2018-05-12T09:49:02.163Z,24.70
2018-05-12T09:51:30.142Z,24.80
2018-05-12T09:53:58.087Z,25.00
2018-05-12T09:56:26.840Z,25.30
2018-05-12T09:58:54.790Z,25.30
2018-05-12T10:01:23.544Z,25.40
2018-05-12T10:03:51.467Z,25.40
2018-05-12T10:06:19.391Z,25.40
2018-05-12T10:08:47.328Z,25.50
2018-05-12T10:11:15.357Z,25.60
2018-05-12T10:13:44.125Z,25.30
2018-05-12T10:16:12.032Z,25.30
2018-05-12T10:18:39.932Z,25.30
2018-05-12T10:21:07.898Z,25.40
2018-05-12T10:23:35.981Z,25.50
2018-05-12T10:26:03.994Z,25.80
2018-05-12T10:28:31.994Z,26.00
2018-05-12T10:30:59.959Z,26.10
2018-05-12T10:33:27.946Z,26.10
2018-05-12T10:35:55.992Z,26.30
2018-05-12T10:38:24.014Z,26.30
2018-05-12T10:40:52.013Z,26.10
2018-05-12T10:43:20.781Z,26.40
2018-05-12T10:45:48.711Z,26.30
2018-05-12T10:48:16.702Z,26.40
2018-05-12T10:50:45.466Z,26.70
2018-05-12T10:53:13.428Z,26.70
2018-05-12T10:55:41.333Z,26.50
2018-05-12T10:58:09.362Z,26.40
2018-05-12T11:00:37.454Z,26.20
2018-05-12T11:03:05.403Z,25.90
2018-05-12T11:05:33.331Z,25.70
2018-05-12T11:08:01.353Z,25.40
2018-05-12T11:10:29.372Z,25.70
2018-05-12T11:12:57.279Z,25.80
2018-05-12T11:15:25.238Z,25.80
2018-05-12T11:17:53.923Z,25.80
2018-05-12T11:20:22.704Z,26.30
2018-05-12T11:22:50.727Z,26.30
2018-05-12T11:25:18.636Z,26.50
2018-05-12T11:27:47.462Z,26.90
2018-05-12T11:30:15.473Z,26.90
2018-05-12T11:32:43.462Z,26.30
2018-05-12T11:35:11.441Z,26.20
2018-05-12T11:37:40.112Z,25.90
2018-05-12T11:40:08.018Z,25.80
2018-05-12T11:42:35.963Z,26.50
2018-05-12T11:45:04.692Z,26.50
2018-05-12T11:47:32.658Z,26.50
2018-05-12T11:50:00.600Z,26.90
2018-05-12T11:52:29.318Z,28.10
2018-05-12T11:54:57.220Z,28.10
2018-05-12T11:57:25.134Z,28.60
2018-05-12T11:59:53.052Z,27.90
2018-05-12T12:02:20.999Z,26.50
2018-05-12T12:04:48.928Z,26.30
2018-05-12T12:07:17.646Z,27.80
2018-05-12T12:09:45.565Z,27.80
2018-05-12T12:12:13.570Z,28.00
2018-05-12T12:14:41.552Z,28.20
2018-05-12T12:17:09.486Z,28.00
2018-05-12T12:19:38.257Z,28.40
2018-05-12T12:22:06.256Z,28.30
2018-05-12T12:24:34.955Z,28.60
2018-05-12T12:27:02.941Z,28.50
2018-05-12T12:29:30.943Z,28.80
2018-05-12T12:31:58.862Z,29.20
2018-05-12T12:34:26.858Z,28.00
2018-05-12T12:36:54.886Z,27.10
2018-05-12T12:39:23.570Z,27.30
2018-05-12T12:41:52.232Z,27.60
2018-05-12T12:44:20.246Z,27.50
2018-05-12T12:46:48.215Z,28.10
2018-05-12T12:49:16.137Z,27.90
2018-05-12T12:51:44.080Z,27.80
2018-05-12T12:54:12.095Z,27.20
2018-05-12T12:56:40.876Z,28.00
2018-05-12T12:59:08.791Z,28.00
2018-05-12T13:01:36.682Z,28.60
2018-05-12T13:04:05.844Z,28.60
2018-05-12T13:06:34.941Z,27.90
2018-05-12T13:09:02.910Z,27.90
2018-05-12T13:11:30.937Z,27.50
2018-05-12T13:13:58.915Z,28.60
2018-05-12T13:16:26.846Z,30.10
2018-05-12T13:18:54.916Z,29.30
2018-05-12T13:21:22.937Z,29.60
2018-05-12T13:23:51.692Z,28.40
2018-05-12T13:26:19.650Z,28.40
2018-05-12T13:28:47.580Z,28.60
2018-05-12T13:31:16.364Z,30.70
2018-05-12T13:33:44.318Z,30.60
2018-05-12T13:36:13.015Z,30.10
2018-05-12T13:38:41.714Z,29.80
2018-05-12T13:41:09.632Z,29.80
2018-05-12T13:43:37.642Z,30.10
2018-05-12T13:46:06.311Z,30.50
2018-05-12T13:48:34.255Z,30.40
2018-05-12T13:51:02.249Z,29.50
2018-05-12T13:53:30.933Z,28.60
2018-05-12T13:55:58.896Z,28.60
2018-05-12T13:58:26.839Z,28.10
2018-05-12T14:00:54.842Z,28.40
2018-05-12T14:03:22.728Z,29.40
2018-05-12T14:05:51.499Z,29.50
2018-05-12T14:08:19.487Z,29.50
2018-05-12T14:10:48.342Z,28.60
2018-05-12T14:13:17.106Z,29.60
2018-05-12T14:15:45.024Z,29.60
2018-05-12T14:18:14.079Z,29.90
2018-05-12T14:20:42.042Z,29.90
2018-05-12T14:23:09.985Z,28.90
2018-05-12T14:25:38.042Z,30.20
2018-05-12T14:28:06.811Z,29.30
2018-05-12T14:30:34.728Z,29.20
2018-05-12T14:33:02.847Z,29.60
2018-05-12T14:35:31.042Z,30.00
2018-05-12T14:37:59.715Z,31.20
2018-05-12T14:40:27.768Z,31.20
2018-05-12T14:42:55.838Z,31.50
2018-05-12T14:45:23.842Z,30.20
2018-05-12T14:47:52.531Z,28.90
2018-05-12T14:50:21.308Z,28.40
2018-05-12T14:52:49.202Z,28.40
2018-05-12T14:55:17.198Z,29.40
2018-05-12T14:57:45.148Z,30.00
2018-05-12T15:00:13.096Z,30.00
2018-05-12T15:02:41.841Z,31.60
2018-05-12T15:05:09.791Z,31.60
2018-05-12T15:07:37.756Z,29.70
2018-05-12T15:10:05.731Z,29.20
2018-05-12T15:12:33.727Z,29.70
2018-05-12T15:15:01.648Z,29.90
2018-05-12T15:17:29.554Z,30.70
2018-05-12T15:19:57.550Z,30.60
2018-05-12T15:22:25.517Z,30.60
2018-05-12T15:24:53.438Z,30.10
2018-05-12T15:27:21.435Z,30.30
2018-05-12T15:29:49.407Z,30.00
2018-05-12T15:32:17.378Z,30.40
2018-05-12T15:34:45.356Z,29.20
2018-05-12T15:37:13.283Z,29.40
2018-05-12T15:39:41.196Z,29.80
2018-05-12T15:42:09.171Z,29.40
2018-05-12T15:44:37.183Z,29.60
2018-05-12T15:47:05.150Z,29.80
2018-05-12T15:49:33.112Z,30.40
2018-05-12T15:52:01.873Z,30.40
2018-05-12T15:54:29.929Z,30.40
2018-05-12T15:56:57.950Z,30.50
2018-05-12T15:59:25.966Z,30.40
2018-05-12T16:01:53.975Z,29.40
2018-05-12T16:04:22.988Z,29.20
2018-05-12T16:06:50.938Z,29.20
2018-05-12T16:09:19.703Z,29.50
2018-05-12T16:11:47.687Z,29.50
2018-05-12T16:14:15.668Z,29.80
2018-05-12T16:16:44.383Z,30.20
2018-05-12T16:19:12.381Z,30.20
2018-05-12T16:21:40.351Z,30.30
2018-05-12T16:24:09.034Z,27.80
2018-05-12T16:26:37.191Z,27.80
2018-05-12T16:29:05.213Z,27.90
2018-05-12T16:31:34.021Z,27.70
2018-05-12T16:34:02.064Z,27.70
2018-05-12T16:36:30.059Z,27.10
2018-05-12T16:38:58.732Z,28.00
2018-05-12T16:41:27.480Z,27.80
2018-05-12T16:43:55.474Z,27.80
2018-05-12T16:46:23.447Z,27.30
2018-05-12T16:48:51.471Z,26.90
2018-05-12T16:51:19.439Z,26.90
2018-05-12T16:53:47.371Z,26.00
2018-05-12T16:56:16.153Z,26.00
2018-05-12T16:58:44.060Z,26.00
2018-05-12T17:01:11.986Z,26.00
2018-05-12T17:03:39.959Z,26.60
2018-05-12T17:06:08.651Z,27.30
2018-05-12T17:08:40.156Z,27.40
2018-05-12T17:11:08.212Z,27.40
2018-05-12T17:13:36.127Z,27.90
2018-05-12T17:16:04.127Z,28.50
2018-05-12T17:18:32.982Z,29.20
2018-05-12T17:21:00.962Z,29.10
2018-05-12T17:23:28.950Z,29.20
2018-05-12T17:25:57.750Z,28.50
2018-05-12T17:28:26.444Z,27.70
2018-05-12T17:30:54.409Z,27.60
2018-05-12T17:33:23.116Z,27.90
2018-05-12T17:35:51.050Z,27.90
2018-05-12T17:38:19.747Z,27.30
2018-05-12T17:40:48.536Z,26.80
2018-05-12T17:43:17.251Z,26.40
2018-05-12T17:45:45.179Z,26.40
2018-05-12T17:48:13.894Z,26.40
2018-05-12T17:50:41.811Z,26.40
2018-05-12T17:53:09.739Z,26.70
2018-05-12T17:55:37.776Z,26.40
2018-05-12T17:58:06.168Z,26.20
2018-05-12T18:00:34.216Z,26.40
2018-05-12T18:03:02.152Z,26.10
2018-05-12T18:05:30.806Z,25.80
2018-05-12T18:07:58.808Z,25.60
2018-05-12T18:10:26.826Z,25.50
2018-05-12T18:12:55.531Z,25.00
2018-05-12T18:15:23.516Z,24.90
2018-05-12T18:17:51.554Z,24.50
2018-05-12T18:22:54.575Z,24.10
2018-05-12T18:25:22.530Z,24.20
2018-05-12T18:27:51.242Z,24.00
2018-05-12T18:30:19.469Z,24.00
2018-05-12T18:32:47.466Z,24.00
2018-05-12T18:35:16.424Z,23.70
2018-05-12T18:37:44.363Z,23.70
2018-05-12T18:40:12.291Z,23.70
2018-05-12T18:42:41.065Z,23.70
2018-05-12T18:45:09.033Z,23.70
2018-05-12T18:47:36.971Z,23.70
2018-05-12T18:50:04.993Z,23.40
2018-05-12T18:52:33.752Z,23.10
2018-05-12T18:55:01.746Z,23.10
2018-05-12T18:57:30.478Z,23.20
2018-05-12T18:59:58.496Z,23.20
2018-05-12T19:02:27.171Z,22.90
2018-05-12T19:04:55.161Z,22.90
2018-05-12T19:07:23.881Z,22.60
2018-05-12T19:09:51.798Z,22.60
2018-05-12T19:12:19.695Z,22.60
2018-05-12T19:14:48.408Z,22.40
2018-05-12T19:17:16.491Z,22.40
2018-05-12T19:19:45.258Z,22.30
2018-05-12T19:22:13.269Z,22.30
2018-05-12T19:24:41.289Z,22.30
2018-05-12T19:27:09.209Z,22.20
2018-05-12T19:29:37.143Z,22.00
2018-05-12T19:32:05.194Z,22.00
2018-05-12T19:34:33.906Z,22.00
2018-05-12T19:37:01.871Z,21.90
2018-05-12T19:39:29.837Z,22.00
2018-05-12T19:41:57.774Z,21.80
2018-05-12T19:44:26.483Z,21.70
2018-05-12T19:46:54.401Z,21.70
2018-05-12T19:49:22.391Z,21.60
2018-05-12T19:51:50.338Z,21.60
2018-05-12T19:54:18.258Z,21.70
2018-05-12T19:56:46.265Z,21.50
2018-05-12T19:59:14.194Z,21.40
2018-05-12T20:01:42.215Z,21.60
2018-05-12T20:04:10.181Z,21.80
2018-05-12T20:06:38.164Z,21.80
2018-05-12T20:09:06.150Z,21.90
2018-05-12T20:11:34.155Z,21.70
2018-05-12T20:14:02.184Z,21.60
2018-05-12T20:16:30.098Z,21.70
2018-05-12T20:18:58.062Z,21.70
2018-05-12T20:21:26.002Z,21.70
2018-05-12T20:23:54.834Z,21.70
2018-05-12T20:26:22.818Z,21.70
2018-05-12T20:28:50.746Z,21.70
2018-05-12T20:31:19.506Z,21.70
2018-05-12T20:33:47.443Z,21.60
2018-05-12T20:36:15.364Z,21.60
2018-05-12T20:38:44.121Z,21.50
2018-05-12T20:41:12.089Z,21.50
2018-05-12T20:43:40.050Z,21.60
2018-05-12T20:46:07.963Z,21.50
2018-05-12T20:48:36.756Z,21.40
2018-05-12T20:51:04.654Z,21.40
2018-05-12T20:53:32.611Z,21.40
2018-05-12T20:56:00.582Z,21.60
2018-05-12T21:01:02.711Z,21.60
2018-05-12T21:03:30.640Z,21.60
2018-05-12T21:05:58.558Z,21.60
2018-05-12T21:08:26.531Z,21.40
2018-05-12T21:10:54.441Z,21.30
2018-05-12T21:13:22.434Z,21.50
2018-05-12T21:15:50.390Z,21.60
2018-05-12T21:18:18.332Z,21.40
2018-05-12T21:20:47.093Z,21.40
2018-05-12T21:23:15.077Z,21.30
2018-05-12T21:25:43.854Z,21.20
2018-05-12T21:28:12.547Z,21.10
2018-05-12T21:30:41.242Z,21.10
2018-05-12T21:33:09.970Z,21.20
2018-05-12T21:35:37.960Z,21.30
2018-05-12T21:38:05.868Z,21.10
2018-05-12T21:40:34.638Z,21.10
2018-05-12T21:43:02.654Z,21.10
2018-05-12T21:45:30.826Z,21.10
2018-05-12T21:47:58.771Z,21.00
2018-05-12T21:50:27.454Z,20.90
2018-05-12T21:52:56.225Z,20.80
2018-05-12T21:55:24.227Z,20.80
2018-05-12T21:57:52.182Z,21.00
2018-05-12T22:00:20.893Z,21.00
2018-05-12T22:02:48.853Z,21.00
2018-05-12T22:05:16.765Z,21.00
2018-05-12T22:07:44.764Z,20.90
2018-05-12T22:10:13.475Z,21.10
2018-05-12T22:12:42.201Z,21.20
2018-05-12T22:15:10.142Z,21.10
2018-05-12T22:17:38.115Z,21.10
2018-05-12T22:20:06.113Z,21.30
2018-05-12T22:22:33.995Z,21.10
2018-05-12T22:25:01.923Z,21.00
2018-05-12T22:27:29.917Z,21.20
2018-05-12T22:29:57.874Z,21.00
2018-05-12T22:32:25.884Z,20.90
2018-05-12T22:34:53.804Z,21.10
2018-05-12T22:37:21.766Z,21.00
2018-05-12T22:39:49.726Z,21.00
2018-05-12T22:42:18.451Z,21.00
2018-05-12T22:44:46.422Z,21.00
2018-05-12T22:47:14.415Z,21.10
2018-05-12T22:49:42.334Z,21.10
2018-05-12T22:52:10.293Z,21.10
2018-05-12T22:54:39.067Z,21.00
2018-05-12T22:57:07.758Z,21.00
2018-05-12T22:59:36.447Z,20.90
2018-05-12T23:02:05.251Z,20.80
2018-05-12T23:04:33.195Z,20.80
2018-05-12T23:07:01.846Z,20.60
2018-05-12T23:09:29.815Z,20.60
2018-05-12T23:11:57.675Z,20.50
2018-05-12T23:14:25.584Z,20.60
2018-05-12T23:16:53.524Z,20.60
2018-05-12T23:19:21.410Z,20.80
2018-05-12T23:21:50.154Z,20.70
2018-05-12T23:24:18.062Z,20.70
2018-05-12T23:26:46.031Z,20.60
2018-05-12T23:29:13.915Z,20.60
2018-05-12T23:31:42.665Z,20.60
2018-05-12T23:34:10.587Z,20.60
2018-05-12T23:36:39.440Z,20.50
2018-05-12T23:39:07.335Z,20.50
2018-05-12T23:41:36.004Z,20.50
2018-05-12T23:44:03.892Z,20.50
2018-05-12T23:46:32.645Z,20.50
2018-05-12T23:49:00.527Z,20.50
2018-05-12T23:51:28.550Z,20.50
2018-05-12T23:53:57.263Z,20.60
2018-05-12T23:56:25.200Z,20.60
2018-05-12T23:58:53.087Z,20.50
